Time;durP1;ratioP1;P1;durP2;ratioP2;P2;SDS_P1;SDS_P2;PMS_P1;PMS_P2;Temp;Humidity;BMP_temperature;BMP_pressure;BME280_temperature;BME280_humidity;BME280_pressure;Samples;Min_cycle;Max_cycle;Signal;HPM_P1;HPM_P2
2022/11/19 00:01:29;;;;;;;11.20;8.85;;;0.10;99.90;;;;;;6245342;23;20187;-76
2022/11/19 00:03:56;;;;;;;12.77;9.75;;;0.10;99.90;;;;;;6245897;22;20203;-77
2022/11/19 00:06:25;;;;;;;11.40;8.13;;;0.10;99.90;;;;;;6246316;23;20244;-77
2022/11/19 00:08:54;;;;;;;11.07;8.70;;;0.20;99.90;;;;;;6244701;23;20274;-77
2022/11/19 00:14:04;;;;;;;10.68;8.50;;;0.10;99.90;;;;;;6244428;22;20195;-76
2022/11/19 00:16:31;;;;;;;9.35;8.32;;;0.00;99.90;;;;;;6246215;23;20213;-76
2022/11/19 00:18:58;;;;;;;9.80;8.80;;;0.00;99.90;;;;;;6246424;23;20239;-77
2022/11/19 00:21:25;;;;;;;11.05;8.35;;;0.10;99.90;;;;;;6244496;23;20637;-76
2022/11/19 00:23:55;;;;;;;9.90;8.05;;;0.10;99.90;;;;;;6245856;22;20209;-77
2022/11/19 00:26:22;;;;;;;10.98;8.32;;;0.00;99.90;;;;;;6245624;23;20170;-77
2022/11/19 00:28:49;;;;;;;12.15;8.82;;;0.00;99.90;;;;;;6245964;23;20241;-78
2022/11/19 00:31:17;;;;;;;12.38;9.18;;;0.00;99.90;;;;;;6244692;23;20159;-77
2022/11/19 00:33:45;;;;;;;9.27;8.30;;;0.00;99.90;;;;;;6245657;22;20277;-76
2022/11/19 00:36:14;;;;;;;14.00;8.48;;;0.00;99.90;;;;;;6244969;23;20195;-77
2022/11/19 00:38:41;;;;;;;13.07;9.73;;;0.00;99.90;;;;;;6244615;23;20651;-76
2022/11/19 00:41:09;;;;;;;10.23;9.23;;;-0.10;99.90;;;;;;6245195;23;20191;-76
2022/11/19 00:43:49;;;;;;;16.77;8.25;;;-0.10;99.90;;;;;;6245519;22;20231;-76
2022/11/19 00:46:18;;;;;;;10.80;8.90;;;-0.10;99.90;;;;;;6245930;23;20190;-76
2022/11/19 00:48:45;;;;;;;8.77;7.70;;;-0.20;99.90;;;;;;6244888;23;20267;-76
2022/11/19 00:51:13;;;;;;;12.90;9.32;;;-0.10;99.90;;;;;;6245007;23;20225;-77
2022/11/19 00:53:39;;;;;;;11.25;8.27;;;-0.10;99.90;;;;;;6245454;22;20283;-78
2022/11/19 00:56:10;;;;;;;10.63;8.55;;;-0.10;99.90;;;;;;6245553;23;20562;-77
2022/11/19 00:58:37;;;;;;;14.18;9.40;;;-0.20;99.90;;;;;;6245430;23;20179;-77
2022/11/19 01:01:05;;;;;;;10.18;8.27;;;-0.20;99.90;;;;;;6244092;23;20610;-77
2022/11/19 01:03:32;;;;;;;14.25;9.48;;;-0.20;99.90;;;;;;6245924;22;20271;-76
2022/11/19 01:05:59;;;;;;;12.95;9.18;;;-0.20;99.90;;;;;;6245407;23;20498;-76
2022/11/19 01:08:26;;;;;;;8.60;7.63;;;-0.20;99.90;;;;;;6245206;23;20194;-76
2022/11/19 01:10:53;;;;;;;10.73;8.45;;;-0.30;99.90;;;;;;6244155;23;20590;-76
2022/11/19 01:13:37;;;;;;;9.80;8.30;;;-0.30;99.90;;;;;;6245171;22;20223;-77
2022/11/19 01:16:06;;;;;;;11.32;8.60;;;-0.30;99.90;;;;;;6244970;23;20160;-77
2022/11/19 01:18:33;;;;;;;12.95;8.57;;;-0.30;99.90;;;;;;6245222;23;20544;-75
2022/11/19 01:21:00;;;;;;;13.15;8.82;;;-0.40;99.90;;;;;;6244328;23;20246;-77
2022/11/19 01:23:28;;;;;;;13.32;8.48;;;-0.40;99.90;;;;;;6245184;22;20195;-75
2022/11/19 01:25:55;;;;;;;11.32;8.68;;;-0.40;99.90;;;;;;6245581;23;20191;-75
2022/11/19 01:28:23;;;;;;;10.20;7.63;;;-0.40;99.90;;;;;;6245181;23;20418;-77
2022/11/19 01:30:50;;;;;;;10.95;8.10;;;-0.40;99.90;;;;;;6244352;23;20599;-76
2022/11/19 01:33:17;;;;;;;10.30;8.38;;;-0.30;99.90;;;;;;6245178;22;20195;-76
2022/11/19 01:35:44;;;;;;;10.57;8.35;;;-0.30;99.90;;;;;;6244751;23;20413;-76
2022/11/19 01:38:11;;;;;;;11.38;8.43;;;-0.40;99.90;;;;;;6245612;23;20262;-77
2022/11/19 01:40:42;;;;;;;11.27;7.85;;;-0.40;99.90;;;;;;6243845;23;20677;-76
2022/11/19 01:43:11;;;;;;;9.95;8.38;;;-0.40;99.90;;;;;;6245187;22;20277;-76
2022/11/19 01:45:41;;;;;;;11.02;8.68;;;-0.30;99.90;;;;;;6244881;23;20242;-76
2022/11/19 01:48:14;;;;;;;9.52;7.65;;;-0.40;99.90;;;;;;6245953;23;20535;-75
2022/11/19 01:50:46;;;;;;;12.10;9.05;;;-0.30;99.90;;;;;;6244533;23;20247;-75
2022/11/19 01:53:14;;;;;;;14.25;9.52;;;-0.40;99.90;;;;;;6245627;22;20274;-76
2022/11/19 01:55:43;;;;;;;13.15;9.02;;;-0.30;99.90;;;;;;6245141;23;20199;-77
2022/11/19 01:58:13;;;;;;;12.00;8.85;;;-0.30;99.90;;;;;;6245248;23;20294;-75
2022/11/19 02:00:41;;;;;;;10.20;8.95;;;-0.50;99.90;;;;;;6243579;23;20243;-76
2022/11/19 02:03:09;;;;;;;9.80;7.93;;;-0.40;99.90;;;;;;6245422;22;20237;-75
2022/11/19 02:05:37;;;;;;;9.93;8.60;;;-0.40;99.90;;;;;;6245237;23;20200;-76
2022/11/19 02:08:07;;;;;;;12.68;8.25;;;-0.40;99.90;;;;;;6244941;23;20674;-75
2022/11/19 02:10:43;;;;;;;9.55;7.70;;;-0.40;99.90;;;;;;6242523;23;20704;-76
2022/11/19 02:13:21;;;;;;;12.73;8.98;;;-0.40;99.90;;;;;;6245274;22;20237;-78
2022/11/19 02:15:53;;;;;;;9.18;7.65;;;-0.30;99.90;;;;;;6219061;23;20594;-76
2022/11/19 02:18:35;;;;;;;10.50;7.40;;;-0.40;99.90;;;;;;6245049;23;20258;-76
2022/11/19 02:21:20;;;;;;;11.05;8.45;;;-0.40;99.90;;;;;;6244354;23;20166;-76
2022/11/19 02:24:15;;;;;;;9.98;7.20;;;-0.40;99.90;;;;;;6244572;22;20662;-77
2022/11/19 02:27:14;;;;;;;9.95;7.30;;;-0.50;99.90;;;;;;6245009;23;20164;-77
2022/11/19 02:30:04;;;;;;;12.32;9.27;;;-0.60;99.90;;;;;;6221965;23;20191;-76
2022/11/19 02:32:34;;;;;;;9.23;8.10;;;-0.60;99.90;;;;;;6221508;22;20259;-77
2022/11/19 02:35:17;;;;;;;12.75;7.78;;;-0.60;99.90;;;;;;6246216;23;20196;-76
2022/11/19 02:37:49;;;;;;;10.70;7.47;;;-0.60;99.90;;;;;;6246609;23;20163;-77
2022/11/19 02:40:24;;;;;;;9.00;7.40;;;-0.60;99.90;;;;;;6245846;23;20190;-77
2022/11/19 02:42:59;;;;;;;13.68;10.30;;;-0.60;99.90;;;;;;6247140;22;20705;-76
2022/11/19 02:45:33;;;;;;;10.52;7.93;;;-0.60;99.90;;;;;;6220472;23;20198;-75
2022/11/19 02:48:03;;;;;;;12.20;8.20;;;-0.60;99.90;;;;;;6246546;23;20194;-76
2022/11/19 02:50:34;;;;;;;10.10;7.80;;;-0.60;99.90;;;;;;6245604;23;20199;-76
2022/11/19 02:53:03;;;;;;;11.60;9.10;;;-0.50;99.90;;;;;;6246981;22;20195;-76
2022/11/19 02:55:30;;;;;;;12.50;8.85;;;-0.60;99.90;;;;;;6246655;23;20668;-77
2022/11/19 02:58:03;;;;;;;12.73;9.80;;;-0.60;99.90;;;;;;6244608;23;20258;-77
2022/11/19 03:06:26;;;;;;;12.40;8.63;;;-0.50;99.90;;;;;;6246287;23;20665;-76
2022/11/19 03:08:53;;;;;;;11.27;8.07;;;-0.60;99.90;;;;;;6246885;23;20194;-77
2022/11/19 03:11:24;;;;;;;13.05;9.10;;;-0.70;99.90;;;;;;6246023;23;20190;-76
2022/11/19 03:16:43;;;;;;;11.88;9.45;;;-0.70;99.90;;;;;;6246290;23;20165;-77
2022/11/19 03:19:31;;;;;;;12.15;8.93;;;-0.70;99.90;;;;;;6241649;22;20184;-79
2022/11/19 03:22:04;;;;;;;12.50;9.00;;;-0.70;99.90;;;;;;6212124;23;20524;-79
2022/11/19 03:24:35;;;;;;;10.27;7.43;;;-0.70;99.90;;;;;;6228435;23;20168;-80
2022/11/19 03:27:08;;;;;;;16.50;10.27;;;-0.70;99.90;;;;;;6227998;23;20220;-80
2022/11/19 03:29:38;;;;;;;11.60;8.90;;;-0.80;99.90;;;;;;6229965;23;20195;-78
2022/11/19 03:32:11;;;;;;;11.45;8.52;;;-0.70;99.90;;;;;;6234119;23;20188;-80
2022/11/19 03:34:40;;;;;;;14.02;9.32;;;-0.70;99.90;;;;;;6234409;23;20164;-80
2022/11/19 03:37:10;;;;;;;11.82;8.10;;;-0.70;99.90;;;;;;6233976;23;20186;-78
2022/11/19 03:39:38;;;;;;;11.52;9.95;;;-0.70;99.90;;;;;;6233432;23;20211;-78
2022/11/19 03:42:09;;;;;;;12.68;9.75;;;-0.70;99.90;;;;;;6238980;23;20187;-79
2022/11/19 03:44:39;;;;;;;10.90;9.05;;;-0.80;99.90;;;;;;6238226;23;20175;-79
2022/11/19 03:47:12;;;;;;;12.32;8.93;;;-0.80;99.90;;;;;;6231166;23;20175;-80
2022/11/19 03:49:42;;;;;;;10.45;8.07;;;-0.80;99.90;;;;;;6231440;23;20196;-78
2022/11/19 03:52:13;;;;;;;12.23;8.63;;;-0.80;99.90;;;;;;6231858;23;20180;-78
2022/11/19 03:54:41;;;;;;;11.55;9.10;;;-0.80;99.90;;;;;;6226462;23;20587;-80
2022/11/19 03:57:10;;;;;;;16.00;9.38;;;-0.80;99.90;;;;;;6223697;23;20180;-79
2022/11/19 03:59:37;;;;;;;10.63;8.40;;;-0.80;99.90;;;;;;6222757;23;20216;-79
2022/11/19 04:02:06;;;;;;;14.15;9.48;;;-0.90;99.90;;;;;;6223006;23;20175;-78
2022/11/19 04:04:38;;;;;;;13.35;9.30;;;-0.90;99.90;;;;;;6239474;23;20176;-79
2022/11/19 04:07:10;;;;;;;13.52;10.27;;;-0.90;99.90;;;;;;6239191;23;20148;-79
2022/11/19 04:09:38;;;;;;;14.50;9.73;;;-0.90;99.90;;;;;;6235662;23;20206;-78
2022/11/19 04:12:07;;;;;;;12.13;9.27;;;-1.00;99.90;;;;;;6235060;23;20176;-79
2022/11/19 04:14:34;;;;;;;12.57;9.13;;;-1.00;99.90;;;;;;6232417;23;20210;-78
2022/11/19 04:17:01;;;;;;;13.68;9.95;;;-1.00;99.90;;;;;;6234353;23;20240;-78
2022/11/19 04:19:27;;;;;;;12.10;9.02;;;-1.00;99.90;;;;;;6233788;23;20348;-78
2022/11/19 04:21:56;;;;;;;11.75;9.32;;;-1.00;99.90;;;;;;6231498;23;20171;-80
2022/11/19 04:24:23;;;;;;;12.65;9.32;;;-1.00;99.90;;;;;;6224931;23;20192;-80
2022/11/19 04:26:49;;;;;;;15.75;11.13;;;-1.00;99.90;;;;;;6224646;23;20179;-78
2022/11/19 04:29:17;;;;;;;10.57;8.57;;;-1.00;99.90;;;;;;6225338;23;20198;-79
2022/11/19 04:31:44;;;;;;;12.32;10.13;;;-1.00;99.90;;;;;;6222755;23;20194;-78
2022/11/19 04:34:10;;;;;;;11.77;8.85;;;-1.00;99.90;;;;;;6222834;23;20236;-78
2022/11/19 04:36:40;;;;;;;15.65;9.23;;;-0.90;99.90;;;;;;6223477;23;20599;-78
2022/11/19 04:39:11;;;;;;;9.27;7.75;;;-1.00;99.90;;;;;;6225747;23;20203;-79
2022/11/19 04:41:39;;;;;;;12.35;9.77;;;-1.00;99.90;;;;;;6227526;23;20178;-79
2022/11/19 04:44:06;;;;;;;10.85;8.68;;;-0.90;99.90;;;;;;6224182;23;20241;-79
2022/11/19 04:46:33;;;;;;;14.43;9.02;;;-0.90;99.90;;;;;;6223850;23;20267;-79
2022/11/19 04:49:00;;;;;;;10.85;8.80;;;-1.00;99.90;;;;;;6223927;23;20195;-80
2022/11/19 04:51:26;;;;;;;12.40;9.27;;;-1.00;99.90;;;;;;6222263;23;20218;-79
2022/11/19 04:53:54;;;;;;;11.75;9.30;;;-1.00;99.90;;;;;;6223753;23;20237;-79
2022/11/19 04:56:22;;;;;;;12.60;8.32;;;-0.90;99.90;;;;;;6222976;23;20226;-79
2022/11/19 04:58:49;;;;;;;11.60;9.18;;;-1.00;99.90;;;;;;6223073;23;20274;-79
2022/11/19 05:01:16;;;;;;;11.68;8.40;;;-1.00;99.90;;;;;;6221849;23;20230;-79
2022/11/19 05:03:43;;;;;;;10.25;7.50;;;-1.00;99.90;;;;;;6223810;23;20235;-78
2022/11/19 05:06:09;;;;;;;10.10;8.07;;;-1.00;99.90;;;;;;6224385;23;20263;-79
2022/11/19 05:08:36;;;;;;;13.05;9.10;;;-0.80;99.90;;;;;;6228336;23;20214;-78
2022/11/19 05:11:03;;;;;;;9.32;7.68;;;-1.00;99.90;;;;;;6224725;23;20230;-79
2022/11/19 05:13:31;;;;;;;10.75;8.20;;;-1.00;99.90;;;;;;6224814;23;20210;-80
2022/11/19 05:15:58;;;;;;;11.40;8.50;;;-1.00;99.90;;;;;;6223367;23;20183;-80
2022/11/19 05:18:25;;;;;;;12.63;10.20;;;-1.00;99.90;;;;;;6223914;23;20270;-80
2022/11/19 05:20:52;;;;;;;12.10;9.00;;;-1.00;99.90;;;;;;6220703;23;20291;-79
2022/11/19 05:23:19;;;;;;;14.65;9.30;;;-0.90;99.90;;;;;;6221906;23;20198;-80
2022/11/19 05:25:47;;;;;;;14.68;9.00;;;-0.90;99.90;;;;;;6222931;23;20209;-78
2022/11/19 05:28:13;;;;;;;11.23;8.27;;;-0.90;99.90;;;;;;6225260;23;20187;-78
2022/11/19 05:30:42;;;;;;;12.15;8.13;;;-0.90;99.90;;;;;;6222897;23;20355;-78
2022/11/19 05:33:09;;;;;;;10.73;8.73;;;-0.90;99.90;;;;;;6224157;23;20226;-80
2022/11/19 05:35:35;;;;;;;13.68;8.70;;;-0.90;99.90;;;;;;6224938;23;20180;-78
2022/11/19 05:38:02;;;;;;;11.50;8.55;;;-0.90;99.90;;;;;;6222979;23;20176;-78
2022/11/19 05:40:29;;;;;;;15.68;8.60;;;-0.90;99.90;;;;;;6222209;23;20282;-79
2022/11/19 05:42:56;;;;;;;14.93;8.00;;;-0.90;99.90;;;;;;6235762;23;20214;-80
2022/11/19 05:45:23;;;;;;;9.80;8.25;;;-0.90;99.90;;;;;;6234141;23;20232;-80
2022/11/19 05:47:55;;;;;;;10.55;8.07;;;-0.90;99.90;;;;;;6235073;23;20179;-82
2022/11/19 05:50:22;;;;;;;10.75;8.90;;;-0.90;99.90;;;;;;6233454;23;20223;-79
2022/11/19 05:52:49;;;;;;;10.63;9.23;;;-0.70;99.90;;;;;;6231895;23;20171;-80
2022/11/19 05:55:16;;;;;;;11.50;8.70;;;-0.90;99.90;;;;;;6234054;23;20184;-81
2022/11/19 05:57:43;;;;;;;11.73;8.75;;;-0.90;99.90;;;;;;6230865;23;20199;-78
2022/11/19 06:00:12;;;;;;;10.35;8.60;;;-0.90;99.90;;;;;;6230709;23;20215;-80
2022/11/19 06:02:39;;;;;;;13.10;9.63;;;-0.90;99.90;;;;;;6225880;23;20554;-78
2022/11/19 06:05:08;;;;;;;12.75;8.90;;;-0.90;99.90;;;;;;6227411;23;20393;-79
2022/11/19 06:07:35;;;;;;;11.65;9.15;;;-0.80;99.90;;;;;;6225556;23;20183;-79
2022/11/19 06:10:02;;;;;;;14.05;9.77;;;-0.90;99.90;;;;;;6223568;23;20202;-79
2022/11/19 06:12:29;;;;;;;11.85;8.52;;;-1.00;99.90;;;;;;6225435;23;20195;-79
2022/11/19 06:14:55;;;;;;;14.05;9.75;;;-1.00;99.90;;;;;;6225820;23;20183;-79
2022/11/19 06:17:22;;;;;;;14.18;8.70;;;-1.00;99.90;;;;;;6225481;23;20179;-79
2022/11/19 06:19:49;;;;;;;13.50;9.93;;;-1.00;99.90;;;;;;6224917;23;20215;-79
2022/11/19 06:22:17;;;;;;;12.38;9.50;;;-1.00;99.90;;;;;;6230011;23;20183;-78
2022/11/19 06:24:44;;;;;;;14.02;9.23;;;-1.10;99.90;;;;;;6228201;23;20179;-80
2022/11/19 06:27:11;;;;;;;10.95;8.02;;;-1.10;99.90;;;;;;6228154;23;20198;-79
2022/11/19 06:29:38;;;;;;;11.25;9.07;;;-1.10;99.90;;;;;;6226087;23;20195;-79
2022/11/19 06:32:05;;;;;;;12.88;9.63;;;-1.10;99.90;;;;;;6227295;23;20207;-79
2022/11/19 06:34:32;;;;;;;15.98;9.75;;;-1.10;99.90;;;;;;6228084;23;20179;-78
2022/11/19 06:36:59;;;;;;;13.57;10.00;;;-1.10;99.90;;;;;;6230869;23;20175;-78
2022/11/19 06:39:27;;;;;;;12.95;9.27;;;-1.10;99.90;;;;;;6230386;23;20223;-78
2022/11/19 06:42:34;;;;;;;12.25;9.13;;;-1.10;99.90;;;;;;6231039;23;20183;-78
2022/11/19 06:44:41;;;;;;;12.73;9.82;;;-1.10;99.90;;;;;;6236030;23;20186;-80
2022/11/19 06:47:08;;;;;;;16.50;9.77;;;-1.10;99.90;;;;;;6234977;23;20206;-79
2022/11/19 06:49:35;;;;;;;12.73;10.38;;;-1.20;99.90;;;;;;6231818;23;20200;-80
2022/11/19 06:52:02;;;;;;;14.00;9.93;;;-1.20;99.90;;;;;;6230694;23;20560;-77
2022/11/19 06:54:30;;;;;;;13.82;10.50;;;-1.20;99.90;;;;;;6230645;23;20186;-79
2022/11/19 06:56:57;;;;;;;11.07;9.18;;;-1.20;99.90;;;;;;6231769;23;20187;-79
2022/11/19 06:59:24;;;;;;;13.93;10.70;;;-1.20;99.90;;;;;;6234800;23;20219;-76
2022/11/19 07:01:51;;;;;;;12.38;10.35;;;-1.10;99.90;;;;;;6234679;23;20176;-78
2022/11/19 07:04:18;;;;;;;12.85;9.60;;;-1.10;99.90;;;;;;6228881;23;20186;-78
2022/11/19 07:06:45;;;;;;;14.60;9.95;;;-1.10;99.90;;;;;;6229363;23;20218;-79
2022/11/19 07:09:11;;;;;;;14.60;10.15;;;-1.10;99.90;;;;;;6229340;23;20255;-79
2022/11/19 07:11:40;;;;;;;12.13;9.48;;;-1.10;99.90;;;;;;6228399;23;20207;-78
2022/11/19 07:14:07;;;;;;;17.48;10.05;;;-1.10;99.90;;;;;;6227995;23;20198;-78
2022/11/19 07:16:35;;;;;;;12.85;9.55;;;-1.00;99.90;;;;;;6227568;23;20176;-78
2022/11/19 07:19:05;;;;;;;13.25;10.98;;;-1.10;99.90;;;;;;6229078;23;20182;-79
2022/11/19 07:21:32;;;;;;;13.88;9.77;;;-1.10;99.90;;;;;;6228434;23;20175;-78
2022/11/19 07:24:00;;;;;;;13.80;9.90;;;-1.00;99.90;;;;;;6229267;23;20203;-82
2022/11/19 07:26:28;;;;;;;13.10;9.57;;;-1.00;99.90;;;;;;6232479;23;20176;-78
2022/11/19 07:28:56;;;;;;;16.08;11.07;;;-1.00;99.90;;;;;;6230489;23;20199;-80
2022/11/19 07:31:23;;;;;;;12.07;9.25;;;-0.90;99.90;;;;;;6226292;23;20208;-80
2022/11/19 07:33:50;;;;;;;16.25;9.75;;;-0.90;99.90;;;;;;6226305;23;20231;-83
2022/11/19 07:36:17;;;;;;;15.00;10.50;;;-0.90;99.90;;;;;;6228277;23;20198;-82
2022/11/19 07:38:44;;;;;;;13.20;8.98;;;-0.80;99.90;;;;;;6227651;23;20235;-79
2022/11/19 07:43:54;;;;;;;17.67;11.55;;;-0.60;99.90;;;;;;6228347;23;20164;-82
2022/11/19 07:46:22;;;;;;;14.35;10.07;;;-0.50;99.90;;;;;;6228359;23;20202;-80
2022/11/19 07:48:53;;;;;;;18.80;12.45;;;-0.40;99.90;;;;;;6224013;23;20207;-79
2022/11/19 07:51:20;;;;;;;16.85;12.05;;;-0.10;99.90;;;;;;6225203;23;20195;-80
2022/11/19 07:53:48;;;;;;;17.33;11.75;;;0.30;99.90;;;;;;6224370;23;20213;-79
2022/11/19 07:56:15;;;;;;;15.32;11.60;;;0.90;99.90;;;;;;6230339;23;20236;-79
2022/11/19 07:58:42;;;;;;;13.48;8.68;;;2.00;99.90;;;;;;6230708;23;20238;-79
2022/11/19 08:01:10;;;;;;;10.98;8.52;;;3.20;99.90;;;;;;6224333;23;20224;-86
2022/11/19 08:03:41;;;;;;;13.65;8.48;;;4.50;99.90;;;;;;6231863;23;20182;-78
2022/11/19 08:06:09;;;;;;;10.73;8.38;;;5.70;99.90;;;;;;6236844;23;20166;-79
2022/11/19 08:08:36;;;;;;;9.57;7.78;;;6.50;99.00;;;;;;6235669;23;20211;-78
2022/11/19 08:11:05;;;;;;;11.05;8.38;;;7.40;96.30;;;;;;6227207;23;20204;-84
2022/11/19 08:13:32;;;;;;;10.35;8.90;;;8.30;93.60;;;;;;6227022;23;20176;-82
2022/11/19 08:16:02;;;;;;;9.85;8.65;;;9.10;91.80;;;;;;6227709;23;20217;-80
2022/11/19 08:18:28;;;;;;;12.52;7.80;;;9.80;89.10;;;;;;6226686;23;20253;-81
2022/11/19 08:21:04;;;;;;;11.37;9.30;;;10.50;84.70;;;;;;6226997;23;20203;-80
2022/11/19 08:23:31;;;;;;;9.80;8.25;;;11.30;81.30;;;;;;6241539;22;20454;-84
2022/11/19 08:25:59;;;;;;;9.38;8.38;;;11.80;78.00;;;;;;6243348;22;20168;-81
2022/11/19 08:28:26;;;;;;;11.02;8.10;;;12.10;75.50;;;;;;6242544;22;20144;-80
2022/11/19 08:30:53;;;;;;;9.02;7.00;;;12.00;74.50;;;;;;6241431;22;20202;-81
2022/11/19 08:33:20;;;;;;;10.07;9.05;;;12.20;74.70;;;;;;6243069;22;20152;-80
2022/11/19 08:35:47;;;;;;;9.98;8.98;;;12.70;73.20;;;;;;6242589;22;20182;-82
2022/11/19 08:38:16;;;;;;;9.88;8.88;;;12.80;71.70;;;;;;6243124;22;20176;-81
2022/11/19 08:40:43;;;;;;;10.13;9.23;;;12.90;70.80;;;;;;6238528;22;20187;-81
2022/11/19 08:43:09;;;;;;;14.48;9.73;;;12.40;80.90;;;;;;6239455;22;20176;-82
2022/11/19 08:45:38;;;;;;;10.27;8.98;;;11.80;85.10;;;;;;6239176;23;20231;-79
2022/11/19 08:48:08;;;;;;;10.35;8.52;;;11.20;81.20;;;;;;6236341;22;20179;-81
2022/11/19 08:50:41;;;;;;;16.75;11.50;;;11.50;74.90;;;;;;6240627;22;20264;-82
2022/11/19 08:53:08;;;;;;;15.43;10.30;;;11.50;73.90;;;;;;6242485;22;20152;-81
2022/11/19 08:55:36;;;;;;;11.20;9.48;;;12.00;73.80;;;;;;6239579;23;20187;-78
2022/11/19 08:58:04;;;;;;;10.90;9.80;;;12.40;71.40;;;;;;6239891;22;20179;-80
2022/11/19 09:00:34;;;;;;;10.65;9.55;;;12.20;71.40;;;;;;6239835;23;20191;-79
2022/11/19 09:03:01;;;;;;;9.65;8.65;;;12.00;71.20;;;;;;6241323;22;20179;-81
2022/11/19 09:05:28;;;;;;;9.40;8.25;;;12.10;71.50;;;;;;6235850;22;20168;-80
2022/11/19 09:07:55;;;;;;;13.20;8.15;;;12.60;70.40;;;;;;6227869;23;20184;-83
2022/11/19 09:10:22;;;;;;;14.73;10.43;;;13.00;69.20;;;;;;6225293;23;20200;-79
2022/11/19 09:12:51;;;;;;;10.43;9.15;;;12.60;68.90;;;;;;6224965;23;20179;-81
2022/11/19 09:15:18;;;;;;;11.07;8.88;;;12.70;68.40;;;;;;6226574;23;20182;-80
2022/11/19 09:17:45;;;;;;;8.90;7.78;;;12.50;68.90;;;;;;6227299;23;20302;-81
2022/11/19 09:20:12;;;;;;;10.00;8.20;;;12.20;69.30;;;;;;6226848;23;20245;-79
2022/11/19 09:22:39;;;;;;;16.42;10.73;;;12.20;69.50;;;;;;6226843;23;20178;-81
2022/11/19 09:25:08;;;;;;;16.20;8.50;;;12.00;72.50;;;;;;6222150;23;20182;-80
2022/11/19 09:27:44;;;;;;;10.40;7.93;;;11.80;72.90;;;;;;6230721;23;20182;-81
2022/11/19 09:30:13;;;;;;;8.93;8.00;;;12.00;72.30;;;;;;6236336;23;20199;-80
2022/11/19 09:32:40;;;;;;;8.75;6.57;;;12.60;69.30;;;;;;6231531;23;20179;-80
2022/11/19 09:35:08;;;;;;;12.13;7.80;;;12.90;67.00;;;;;;6231496;23;20191;-82
2022/11/19 09:37:35;;;;;;;7.95;7.15;;;12.80;66.20;;;;;;6231883;23;20203;-81
2022/11/19 09:40:03;;;;;;;9.32;7.22;;;12.70;65.80;;;;;;6231325;23;20202;-79
2022/11/19 09:42:41;;;;;;;8.63;7.72;;;12.70;65.50;;;;;;6230544;23;20206;-82
2022/11/19 09:45:19;;;;;;;9.88;7.78;;;12.40;66.00;;;;;;6225862;23;20186;-82
2022/11/19 09:48:09;;;;;;;8.77;5.97;;;12.60;66.00;;;;;;6226938;23;20170;-82
2022/11/19 09:50:46;;;;;;;8.30;7.25;;;12.10;66.40;;;;;;6227497;23;20203;-78
2022/11/19 09:53:41;;;;;;;9.80;7.32;;;12.10;66.50;;;;;;6233167;23;20166;-82
2022/11/19 09:56:26;;;;;;;8.45;7.32;;;12.40;67.50;;;;;;6227388;23;20621;-85
2022/11/19 10:01:26;;;;;;;9.77;7.00;;;11.90;66.50;;;;;;6243205;23;20165;-79
2022/11/19 10:03:54;;;;;;;8.57;7.78;;;10.90;67.90;;;;;;6244865;23;20195;-79
2022/11/19 10:06:29;;;;;;;6.72;5.90;;;10.30;69.90;;;;;;6244473;23;20212;-80
2022/11/19 10:09:13;;;;;;;7.93;6.90;;;10.10;70.10;;;;;;6244075;23;20203;-78
2022/11/19 10:11:51;;;;;;;11.05;6.57;;;9.50;73.20;;;;;;6244110;23;20233;-79
2022/11/19 10:14:36;;;;;;;9.38;7.38;;;9.00;73.80;;;;;;6244832;23;20233;-80
2022/11/19 10:17:16;;;;;;;8.70;6.72;;;8.60;75.30;;;;;;6245813;23;20170;-82
2022/11/19 10:19:54;;;;;;;9.52;6.60;;;8.40;75.80;;;;;;6246071;23;20159;-80
2022/11/19 10:22:24;;;;;;;8.05;7.25;;;8.50;76.00;;;;;;6245256;23;20170;-82
2022/11/19 10:24:59;;;;;;;10.52;8.27;;;8.10;76.90;;;;;;6245560;23;20206;-77
2022/11/19 10:27:31;;;;;;;8.45;6.78;;;8.30;77.30;;;;;;6244961;23;20220;-78
2022/11/19 10:30:04;;;;;;;10.18;6.30;;;8.30;77.10;;;;;;6244072;23;20209;-82
2022/11/19 10:32:38;;;;;;;11.02;7.32;;;8.40;78.00;;;;;;6244349;23;20503;-78
2022/11/19 10:35:15;;;;;;;9.25;7.15;;;8.10;78.20;;;;;;6244777;23;20205;-80
2022/11/19 10:37:52;;;;;;;9.32;7.40;;;7.80;80.70;;;;;;6218306;23;20166;-80
2022/11/19 10:40:22;;;;;;;8.05;5.95;;;7.30;80.80;;;;;;6244540;23;20617;-80
2022/11/19 10:42:54;;;;;;;9.10;7.55;;;7.20;83.00;;;;;;6243248;23;20204;-79
2022/11/19 10:45:23;;;;;;;8.25;7.25;;;7.00;83.00;;;;;;6244150;23;20564;-78
2022/11/19 10:48:02;;;;;;;8.32;6.70;;;7.00;84.20;;;;;;6243203;23;20166;-80
2022/11/19 10:50:30;;;;;;;9.45;6.93;;;6.80;85.10;;;;;;6243163;23;20191;-80
2022/11/19 10:53:00;;;;;;;8.68;5.88;;;6.70;85.30;;;;;;6246216;23;20227;-81
2022/11/19 10:55:32;;;;;;;12.15;7.00;;;6.90;85.30;;;;;;6246183;23;20205;-80
2022/11/19 10:58:08;;;;;;;7.55;6.20;;;6.90;85.20;;;;;;6247994;23;20166;-78
2022/11/19 11:00:37;;;;;;;8.95;6.80;;;7.10;85.10;;;;;;6247223;23;20185;-80
2022/11/19 11:03:13;;;;;;;8.73;6.93;;;6.90;84.70;;;;;;6248931;23;20206;-79
2022/11/19 11:05:55;;;;;;;9.07;7.30;;;6.70;84.80;;;;;;6249327;23;20204;-80
2022/11/19 11:08:22;;;;;;;7.78;6.60;;;6.50;86.40;;;;;;6247551;23;20194;-79
2022/11/19 11:10:51;;;;;;;8.35;6.05;;;6.60;86.80;;;;;;6245680;23;20276;-79
2022/11/19 11:16:23;;;;;;;6.72;5.75;;;6.30;88.90;;;;;;6246195;23;20649;-80
2022/11/19 11:18:53;;;;;;;8.50;6.50;;;6.30;89.30;;;;;;6246742;23;20197;-79
2022/11/19 11:21:42;;;;;;;9.73;7.03;;;6.20;90.00;;;;;;6245499;23;20160;-78
2022/11/19 11:24:10;;;;;;;8.80;6.30;;;6.10;90.00;;;;;;6247279;23;20200;-79
2022/11/19 11:26:37;;;;;;;11.30;6.47;;;6.10;90.50;;;;;;6247836;23;20530;-81
2022/11/19 11:29:07;;;;;;;10.77;7.13;;;6.00;90.30;;;;;;6248192;23;20217;-79
2022/11/19 11:31:39;;;;;;;8.25;7.45;;;5.90;90.60;;;;;;6245195;23;20267;-78
2022/11/19 11:34:14;;;;;;;13.50;6.70;;;5.80;90.80;;;;;;6246658;23;20646;-80
2022/11/19 11:36:42;;;;;;;7.30;6.32;;;5.60;91.20;;;;;;6219461;23;20164;-79
2022/11/19 11:39:24;;;;;;;6.72;6.07;;;5.50;91.70;;;;;;6246182;23;20165;-81
2022/11/19 11:41:51;;;;;;;8.00;4.82;;;5.50;92.60;;;;;;6245850;23;20157;-80
2022/11/19 11:44:22;;;;;;;8.95;5.70;;;5.70;93.40;;;;;;6246028;23;20200;-82
2022/11/19 11:46:51;;;;;;;10.80;6.43;;;5.80;93.60;;;;;;6246998;23;20195;-82
2022/11/19 11:49:27;;;;;;;7.53;5.90;;;6.00;93.40;;;;;;6246163;23;20181;-80
2022/11/19 11:52:05;;;;;;;7.35;5.72;;;6.00;93.10;;;;;;6245562;23;20204;-79
2022/11/19 11:54:33;;;;;;;9.70;6.55;;;5.90;93.40;;;;;;6246786;23;20192;-80
2022/11/19 11:57:15;;;;;;;8.27;6.53;;;5.80;93.50;;;;;;6246531;23;20244;-78
2022/11/19 11:59:42;;;;;;;9.18;6.70;;;5.90;93.40;;;;;;6217945;23;20199;-79
2022/11/19 12:02:22;;;;;;;6.47;5.13;;;5.70;93.40;;;;;;6244292;23;20198;-78
2022/11/19 12:04:51;;;;;;;8.30;6.68;;;5.40;94.00;;;;;;6246352;23;20166;-81
2022/11/19 12:07:34;;;;;;;9.15;7.25;;;5.40;94.40;;;;;;6246264;23;20195;-80
2022/11/19 12:10:13;;;;;;;9.48;6.55;;;5.40;95.00;;;;;;6218687;23;20666;-79
2022/11/19 12:12:47;;;;;;;9.45;5.47;;;5.30;94.90;;;;;;6245929;23;20231;-79
2022/11/19 12:15:22;;;;;;;9.27;6.38;;;5.30;95.10;;;;;;6245610;23;20194;-80
2022/11/19 12:17:55;;;;;;;13.57;7.55;;;5.40;95.00;;;;;;6218532;23;20263;-79
2022/11/19 12:20:39;;;;;;;7.10;6.03;;;5.40;95.00;;;;;;6245068;23;20179;-80
2022/11/19 12:23:29;;;;;;;9.82;7.07;;;5.40;95.40;;;;;;6218911;23;20242;-80
2022/11/19 12:26:11;;;;;;;8.63;6.38;;;5.60;95.50;;;;;;6223129;23;20231;-78
2022/11/19 12:29:01;;;;;;;8.75;6.63;;;5.70;95.20;;;;;;6220407;23;20166;-80
2022/11/19 12:31:54;;;;;;;7.47;5.72;;;5.70;94.70;;;;;;6244727;23;20223;-78
2022/11/19 12:34:41;;;;;;;7.80;5.65;;;5.70;94.70;;;;;;6245980;23;20204;-76
2022/11/19 12:37:25;;;;;;;7.35;5.60;;;5.50;95.00;;;;;;6221610;23;20196;-79
2022/11/19 12:39:55;;;;;;;8.90;5.63;;;5.50;95.40;;;;;;6220414;23;20207;-80
2022/11/19 12:42:40;;;;;;;7.85;5.75;;;5.50;95.80;;;;;;6246163;23;20168;-78
2022/11/19 12:45:17;;;;;;;7.72;6.05;;;5.50;96.10;;;;;;6221479;23;20539;-78
2022/11/19 12:48:07;;;;;;;7.10;5.80;;;5.60;96.30;;;;;;6246269;23;20172;-75
2022/11/19 12:50:45;;;;;;;7.07;5.93;;;5.70;96.60;;;;;;6244331;23;20260;-77
2022/11/19 12:53:25;;;;;;;6.40;5.05;;;5.70;96.40;;;;;;6244530;23;20252;-79
2022/11/19 12:56:02;;;;;;;9.10;6.95;;;5.80;96.00;;;;;;6217396;23;20166;-79
2022/11/19 12:58:41;;;;;;;6.00;5.05;;;5.90;95.90;;;;;;6217438;23;20195;-80
2022/11/19 13:01:14;;;;;;;7.32;5.38;;;6.00;96.10;;;;;;6216571;23;20182;-78
2022/11/19 13:03:52;;;;;;;5.43;4.82;;;6.10;96.30;;;;;;6243711;23;20220;-76
2022/11/19 13:06:25;;;;;;;5.90;5.10;;;6.00;96.20;;;;;;6217616;23;20208;-78
2022/11/19 13:08:57;;;;;;;18.15;5.45;;;6.00;96.30;;;;;;6245409;23;20480;-76
2022/11/19 13:11:35;;;;;;;7.95;4.75;;;5.90;96.90;;;;;;6244230;23;20270;-78
2022/11/19 13:14:05;;;;;;;5.95;4.45;;;5.80;97.30;;;;;;6243984;23;20251;-77
2022/11/19 13:16:34;;;;;;;8.05;5.28;;;5.90;97.40;;;;;;6245281;23;20546;-79
2022/11/19 13:19:12;;;;;;;7.07;6.18;;;6.00;97.20;;;;;;6245496;23;20642;-77
2022/11/19 13:21:45;;;;;;;7.68;5.60;;;5.90;97.60;;;;;;6216943;23;20155;-76